Main page
METAR-TAF:

METAR-TAF

Airports :

Anderson Regional Airport

Anderson, South Carolina, United States

latitude: 34-29-52N, longitude: 082-42-35W, elevation: 781 ft

Current weather observation

The report was made 38 minutes ago, at 10:56 UTC
Calm wind
Temperature 73°F
Humidity 89%
Pressure 30.14 in. Hg
Visibility: 10 miles
Clear sky

METAR: KAND 141056Z AUTO 00000KT 10SM CLR 23/21 A3014 RMK AO2 SLP195 T02280211

Time: 07:34 (11:34 UTC)

Forecast

The report was made 6 hours and 4 minutes ago, at 05:30 UTC
Forecast valid from 14 at 06 UTC to 15 at 06 UTC
Wind 2 mph from variable directions
Visibility: 6 miles
Few clouds at a height of 25000 ft
From 14 at 1800 UTC
Wind 7 mph from the West
Visibility: 6 miles
Few clouds at a height of 6000 ft
Few clouds at a height of 25000 ft
From 15 at 0200 UTC
Wind 0 mph from the North
Visibility: 6 miles
Scattered clouds at a height of 25000 ft

TAF: KAND 140530Z 1406/1506 VRB02KT P6SM FEW250 FM141800 26006KT P6SM FEW060 FEW250 FM150200 00000KT P6SM SCT250

Weather observations and forecasts of more than 4000 airports (METAR and TAF reports).

The available stations are represented by yellow and red dots on the map.

Hover mouse over dot to see the name of the station.

Then click to see weather observations and forecasts.

To change the map : click on the green buttons with a black cross to zoom in, on the green button with a dash to zoom out, or on the green arrows for adjacent maps.


METAR-TAF: